^^
Lisbon, NH - Weather Station Historical Data
Daily Summary for September 22, 2021 Units:  English    Metric   Both
Daily Weekly Monthly Yearly
  High: Low: Average:
Temperature: 77.4 °F 53.8 °F 65.4 °F
Dew Point: 68.7 °F 53.8 °F 62.5 °F
Humidity: 100% 69.4% 91%
Wind Speed: 5.2mph 0mph 0.9mph
Wind Gust: 14mph - -
Wind- - SSE
Pressure: 30.23 in 29.98 in -
Precipitation: 0.01 in    
 
 
Tabular Data for September 22, 2021
Time Temperature Dew Point Pressure Wind Wind Speed Wind Gust Humidity Rainfall Rate (Hourly) solar
00:04 56.2 °F 55.9 °F 30.23 in Calm     99% 0.00 in 0 W/m2
00:09 56 °F 55.7 °F 30.23 in Calm     99% 0.00 in 0 W/m2
00:14 56 °F 55.7 °F 30.23 in Calm     99% 0.00 in 0 W/m2
00:19 56 °F 55.7 °F 30.23 in Calm     99% 0.00 in 0 W/m2
00:24 55.9 °F 55.6 °F 30.23 in Calm     99% 0.00 in 0 W/m2
00:29 55.9 °F 55.7 °F 30.23 in Calm     99.2% 0.00 in 0 W/m2
00:34 55.9 °F 55.9 °F 30.22 in Calm     99.9% 0.00 in 0 W/m2
00:39 55.8 °F 55.8 °F 30.22 in Calm     100% 0.00 in 0 W/m2
00:44 55.7 °F 55.7 °F 30.22 in Calm     100% 0.00 in 0 W/m2
00:49 55.7 °F 55.7 °F 30.22 in Calm     100% 0.00 in 0 W/m2
00:54 55.6 °F 55.6 °F 30.22 in Calm     100% 0.00 in 0 W/m2
00:59 55.6 °F 55.6 °F 30.22 in Calm     100% 0.00 in 0 W/m2
01:04 55.5 °F 55.5 °F 30.22 in Calm     100% 0.00 in 0 W/m2
01:09 55.4 °F 55.4 °F 30.22 in Calm     100% 0.00 in 0 W/m2
01:14 55.4 °F 55.4 °F 30.22 in Calm     100% 0.00 in 0 W/m2
01:19 55.3 °F 55.3 °F 30.21 in Calm     100% 0.00 in 0 W/m2
01:24 55.3 °F 55.3 °F 30.21 in Calm     100% 0.00 in 0 W/m2
01:29 55.2 °F 55.2 °F 30.21 in Calm     100% 0.00 in 0 W/m2
01:34 55.1 °F 55.1 °F 30.20 in Calm     100% 0.00 in 0 W/m2
01:39 55.1 °F 55.1 °F 30.20 in Calm     100% 0.00 in 0 W/m2
01:44 55 °F 55 °F 30.20 in Calm     100% 0.00 in 0 W/m2
01:49 55 °F 55 °F 30.20 in Calm     100% 0.00 in 0 W/m2
01:54 55 °F 55 °F 30.20 in Calm     100% 0.00 in 0 W/m2
01:59 54.8 °F 54.8 °F 30.20 in Calm     100% 0.00 in 0 W/m2
02:04 54.8 °F 54.8 °F 30.20 in Calm     100% 0.00 in 0 W/m2
02:09 54.7 °F 54.7 °F 30.20 in Calm     100% 0.00 in 0 W/m2
02:14 54.7 °F 54.7 °F 30.20 in Calm     100% 0.00 in 0 W/m2
02:19 54.7 °F 54.7 °F 30.20 in Calm     100% 0.00 in 0 W/m2
02:24 54.6 °F 54.6 °F 30.20 in Calm     100% 0.00 in 0 W/m2
02:29 54.5 °F 54.5 °F 30.20 in Calm     100% 0.00 in 0 W/m2
02:34 54.5 °F 54.5 °F 30.19 in Calm     100% 0.00 in 0 W/m2
02:39 54.4 °F 54.4 °F 30.19 in Calm     100% 0.00 in 0 W/m2
02:44 54.4 °F 54.4 °F 30.19 in Calm     100% 0.00 in 0 W/m2
02:49 54.2 °F 54.2 °F 30.19 in Calm     100% 0.00 in 0 W/m2
02:54 54.2 °F 54.2 °F 30.19 in Calm     100% 0.00 in 0 W/m2
02:59 54.2 °F 54.2 °F 30.19 in Calm     100% 0.00 in 0 W/m2
03:04 54.1 °F 54.1 °F 30.19 in Calm     100% 0.00 in 0 W/m2
03:09 54.1 °F 54.1 °F 30.19 in Calm     100% 0.00 in 0 W/m2
03:14 54 °F 54 °F 30.19 in Calm     100% 0.00 in 0 W/m2
03:19 53.9 °F 53.9 °F 30.18 in Calm     100% 0.00 in 0 W/m2
03:24 53.9 °F 53.9 °F 30.18 in Calm     100% 0.00 in 0 W/m2
03:29 53.8 °F 53.8 °F 30.18 in Calm     100% 0.00 in 0 W/m2
03:34 53.8 °F 53.8 °F 30.18 in Calm     100% 0.00 in 0 W/m2
03:39 53.8 °F 53.8 °F 30.18 in Calm     100% 0.00 in 0 W/m2
03:44 53.9 °F 53.9 °F 30.18 in Calm     100% 0.00 in 0 W/m2
03:49 53.8 °F 53.8 °F 30.18 in Calm     100% 0.00 in 0 W/m2
03:54 53.8 °F 53.8 °F 30.18 in Calm     100% 0.00 in 0 W/m2
03:59 53.9 °F 53.9 °F 30.18 in Calm     100% 0.00 in 0 W/m2
04:04 53.9 °F 53.9 °F 30.18 in Calm     100% 0.00 in 0 W/m2
04:09 53.9 °F 53.9 °F 30.18 in NE 0.4 mph 3 mph 100% 0.00 in 0 W/m2
04:14 53.9 °F 53.9 °F 30.18 in NE 1 mph 3 mph 100% 0.00 in 0 W/m2
04:19 53.9 °F 53.9 °F 30.17 in ENE 0.4 mph 2 mph 100% 0.00 in 0 W/m2
04:24 53.9 °F 53.9 °F 30.17 in Calm   2 mph 100% 0.00 in 0 W/m2
04:29 53.8 °F 53.8 °F 30.17 in Calm     100% 0.00 in 0 W/m2
04:34 53.8 °F 53.8 °F 30.17 in Calm   1 mph 100% 0.00 in 0 W/m2
04:39 53.8 °F 53.8 °F 30.17 in Calm   1 mph 100% 0.00 in 0 W/m2
04:44 53.8 °F 53.8 °F 30.17 in Calm   1 mph 100% 0.00 in 0 W/m2
04:49 53.8 °F 53.8 °F 30.17 in Calm     100% 0.00 in 0 W/m2
04:54 53.8 °F 53.8 °F 30.17 in NNE 0.3 mph 2 mph 100% 0.00 in 0 W/m2
04:59 53.8 °F 53.8 °F 30.17 in Calm     100% 0.00 in 0 W/m2
05:04 53.8 °F 53.8 °F 30.17 in NNE 0.1 mph 1 mph 100% 0.00 in 0 W/m2
05:09 53.8 °F 53.8 °F 30.17 in Calm     100% 0.00 in 0 W/m2
05:14 53.8 °F 53.8 °F 30.17 in NNE 0.1 mph 1 mph 100% 0.00 in 0 W/m2
05:19 53.9 °F 53.9 °F 30.16 in NNE 0.1 mph 1 mph 100% 0.00 in 0 W/m2
05:24 53.9 °F 53.9 °F 30.16 in NNE 0.4 mph 2 mph 100% 0.00 in 0 W/m2
05:29 53.9 °F 53.9 °F 30.16 in NE 0.2 mph 1 mph 100% 0.00 in 0 W/m2
05:34 54 °F 54 °F 30.16 in Calm   1 mph 100% 0.00 in 0 W/m2
05:39 54.1 °F 54.1 °F 30.16 in Calm   1 mph 100% 0.00 in 0 W/m2
05:44 54.1 °F 54.1 °F 30.16 in NE 0.1 mph 1 mph 100% 0.00 in 0 W/m2
05:49 54.2 °F 54.2 °F 30.16 in NE 0.3 mph 1 mph 100% 0.00 in 0 W/m2
05:54 54.3 °F 54.3 °F 30.16 in NE 0.3 mph 2 mph 100% 0.00 in 0 W/m2
05:59 54.4 °F 54.4 °F 30.16 in Calm   1 mph 100% 0.00 in 0 W/m2
06:04 54.4 °F 54.4 °F 30.16 in Calm     100% 0.00 in 0 W/m2
06:09 54.5 °F 54.5 °F 30.16 in Calm     100% 0.00 in 0 W/m2
06:14 54.6 °F 54.6 °F 30.16 in Calm     100% 0.00 in 0 W/m2
06:19 54.7 °F 54.7 °F 30.16 in Calm     100% 0.00 in 0 W/m2
06:24 54.9 °F 54.9 °F 30.16 in Calm     100% 0.00 in 0 W/m2
06:29 55 °F 55 °F 30.16 in NE 0.3 mph 1 mph 100% 0.00 in 0 W/m2
06:34 55.1 °F 55.1 °F 30.15 in NE 0.4 mph 2 mph 100% 0.00 in 0 W/m2
06:39 55.3 °F 55.3 °F 30.15 in NE 0.4 mph 2 mph 100% 0.00 in 0 W/m2
06:44 55.4 °F 55.4 °F 30.15 in NE 0.1 mph 1 mph 100% 0.00 in 0 W/m2
06:49 55.6 °F 55.6 °F 30.15 in NE 0.3 mph 2 mph 100% 0.00 in 5 W/m2
06:54 55.6 °F 55.6 °F 30.15 in NE 0.1 mph 1 mph 100% 0.00 in 5 W/m2
06:59 55.6 °F 55.6 °F 30.15 in NE 0.4 mph 2 mph 100% 0.00 in 5 W/m2
07:04 55.7 °F 55.7 °F 30.15 in NE 0.4 mph 2 mph 100% 0.00 in 7 W/m2
07:09 55.8 °F 55.8 °F 30.15 in Calm     100% 0.00 in 12 W/m2
07:14 55.9 °F 55.9 °F 30.15 in Calm   1 mph 100% 0.00 in 16 W/m2
07:19 55.9 °F 55.9 °F 30.15 in NE 0.5 mph 2 mph 100% 0.00 in 12 W/m2
07:24 56 °F 56 °F 30.15 in NE 0.1 mph 2 mph 100% 0.00 in 9 W/m2
07:29 56 °F 56 °F 30.15 in NE 0.5 mph 2 mph 100% 0.00 in 16 W/m2
07:34 56.1 °F 56.1 °F 30.15 in NE 0.5 mph 2 mph 100% 0.00 in 18 W/m2
07:39 56.3 °F 56.3 °F 30.15 in ENE 0.6 mph 2 mph 100% 0.01 in 18 W/m2
07:44 56.4 °F 56.4 °F 30.15 in Calm   2 mph 100% 0.01 in 21 W/m2
07:49 56.5 °F 56.5 °F 30.14 in Calm   1 mph 100% 0.01 in 23 W/m2
07:54 56.6 °F 56.6 °F 30.14 in Calm   1 mph 100% 0.01 in 23 W/m2
07:59 56.7 °F 56.7 °F 30.14 in ENE 0.2 mph 1 mph 100% 0.01 in 23 W/m2
08:04 56.7 °F 56.7 °F 30.14 in Calm     100% 0.01 in 33 W/m2
08:09 56.9 °F 56.9 °F 30.14 in ENE 0.2 mph 1 mph 100% 0.01 in 33 W/m2
08:14 57 °F 57 °F 30.15 in ENE 0.3 mph 1 mph 100% 0.01 in 28 W/m2
08:19 57.1 °F 57.1 °F 30.15 in ENE 0.4 mph 2 mph 100% 0.01 in 48 W/m2
08:24 57.3 °F 57.3 °F 30.15 in Calm   1 mph 100% 0.01 in 53 W/m2
08:29 57.4 °F 57.4 °F 30.15 in ENE 0.3 mph 2 mph 100% 0.01 in 53 W/m2
08:34 57.6 °F 57.6 °F 30.15 in ENE 0.1 mph 2 mph 100% 0.01 in 53 W/m2
08:39 57.6 °F 57.6 °F 30.15 in Calm     100% 0.01 in 56 W/m2
08:44 57.9 °F 57.9 °F 30.15 in Calm   1 mph 100% 0.01 in 60 W/m2
08:49 58 °F 58 °F 30.15 in Calm     100% 0.00 in 83 W/m2
08:54 58.3 °F 58.3 °F 30.15 in ENE 0.5 mph 1 mph 100% 0.00 in 86 W/m2
08:59 58.4 °F 58.4 °F 30.15 in ENE 0.5 mph 1 mph 100% 0.00 in 74 W/m2
09:04 58.6 °F 58.6 °F 30.14 in ENE 0.2 mph 2 mph 100% 0.00 in 63 W/m2
09:09 58.8 °F 58.8 °F 30.14 in ENE 0.2 mph 2 mph 100% 0.00 in 91 W/m2
09:14 59 °F 59 °F 30.14 in ENE 0.5 mph 2 mph 100% 0.00 in 121 W/m2
09:19 59.4 °F 59.4 °F 30.14 in ENE 1.2 mph 3 mph 100% 0.00 in 178 W/m2
09:24 59.8 °F 59.8 °F 30.14 in ENE 0.8 mph 2 mph 100% 0.00 in 211 W/m2
09:29 60.4 °F 60.4 °F 30.14 in ENE 1.2 mph 3 mph 100% 0.00 in 232 W/m2
09:34 61.1 °F 61.1 °F 30.14 in NE 1.9 mph 4 mph 100% 0.00 in 285 W/m2
09:39 61.8 °F 61.8 °F 30.14 in ENE 2.4 mph 4 mph 100% 0.00 in 285 W/m2
09:44 62.3 °F 62.3 °F 30.14 in ENE 2.3 mph 5 mph 100% 0.00 in 269 W/m2
09:49 62.9 °F 62.9 °F 30.13 in ENE 2.3 mph 5 mph 100% 0.00 in 364 W/m2
09:54 63.5 °F 63.4 °F 30.13 in ENE 1.8 mph 3 mph 99.7% 0.00 in 297 W/m2
09:59 63.9 °F 63.6 °F 30.13 in ENE 2.4 mph 5 mph 98.8% 0.00 in 216 W/m2
10:04 64.1 °F 63.6 °F 30.12 in ENE 1.9 mph 3 mph 98% 0.00 in 213 W/m2
10:09 64.3 °F 63.5 °F 30.12 in ENE 1.3 mph 4 mph 97.2% 0.00 in 192 W/m2
10:14 64.6 °F 63.7 °F 30.12 in ENE 1.2 mph 2 mph 97% 0.00 in 201 W/m2
10:19 64.7 °F 63.9 °F 30.12 in ENE 1.7 mph 4 mph 97% 0.00 in 157 W/m2
10:24 64.9 °F 64 °F 30.12 in ENE 1.8 mph 4 mph 96.9% 0.00 in 201 W/m2
10:29 65.2 °F 64 °F 30.12 in ENE 1.5 mph 3 mph 96% 0.00 in 211 W/m2
10:34 65.4 °F 64.3 °F 30.11 in ENE 1.9 mph 3 mph 96% 0.00 in 213 W/m2
10:39 65.7 °F 64.4 °F 30.11 in ENE 1.1 mph 2 mph 95.5% 0.00 in 266 W/m2
10:44 66.1 °F 64.6 °F 30.11 in ENE 1 mph 3 mph 95% 0.00 in 274 W/m2
10:49 66.6 °F 65.1 °F 30.11 in ENE 1.5 mph 2 mph 94.8% 0.00 in 289 W/m2
10:54 67.6 °F 65.9 °F 30.11 in NE 1.7 mph 6 mph 94% 0.00 in 257 W/m2
10:59 69.1 °F 66.9 °F 30.11 in WSW 2.3 mph 8 mph 92.8% 0.00 in 670 W/m2
11:04 70.5 °F 67.5 °F 30.10 in WSW 3.2 mph 8 mph 90.3% 0.00 in 424 W/m2
11:09 72 °F 67.9 °F 30.10 in WSW 2.4 mph 11 mph 86.8% 0.00 in 901 W/m2
11:14 73.1 °F 67.6 °F 30.10 in West 3.4 mph 13 mph 83% 0.00 in 901 W/m2
11:19 74 °F 67.6 °F 30.09 in West 2.8 mph 13 mph 80.5% 0.00 in 901 W/m2
11:24 74.9 °F 67.7 °F 30.09 in SW 3.3 mph 13 mph 78.1% 0.00 in 845 W/m2
11:29 75.4 °F 67.6 °F 30.09 in West 2.1 mph 13 mph 76.7% 0.00 in 581 W/m2
11:34 75.2 °F 67.7 °F 30.09 in WNW 2.7 mph 8 mph 77.4% 0.00 in 517 W/m2
11:39 74.8 °F 67.4 °F 30.09 in West 2.8 mph 11 mph 77.7% 0.00 in 517 W/m2
11:44 74.6 °F 67.2 °F 30.09 in West 2.3 mph 6 mph 77.8% 0.00 in 614 W/m2
11:49 74.6 °F 67.3 °F 30.08 in WSW 2.6 mph 11 mph 78% 0.00 in 378 W/m2
11:54 74.8 °F 67.4 °F 30.08 in SW 3.6 mph 9 mph 77.9% 0.00 in 890 W/m2
11:59 75.3 °F 67.2 °F 30.08 in WSW 3.5 mph 10 mph 76.1% 0.00 in 846 W/m2
12:04 75.4 °F 67.1 °F 30.08 in WSW 3.6 mph 10 mph 75.3% 0.00 in 616 W/m2
12:09 75.8 °F 67.6 °F 30.08 in West 1.9 mph 11 mph 75.7% 0.00 in 843 W/m2
12:14 75.9 °F 67.2 °F 30.08 in WNW 1.8 mph 8 mph 74.4% 0.00 in 289 W/m2
12:19 75.4 °F 67.3 °F 30.07 in WNW 1.2 mph 6 mph 75.8% 0.00 in 289 W/m2
12:24 75.2 °F 67.4 °F 30.07 in NW 1.7 mph 6 mph 76.9% 0.00 in 278 W/m2
12:29 75.1 °F 67.5 °F 30.07 in West 1.7 mph 7 mph 77.2% 0.00 in 394 W/m2
12:34 75.4 °F 67.5 °F 30.07 in SW 2.7 mph 10 mph 76.7% 0.00 in 883 W/m2
12:39 76.3 °F 66.9 °F 30.07 in SW 2.4 mph 13 mph 72.8% 0.00 in 795 W/m2
12:44 76.9 °F 66.8 °F 30.07 in SW 3.1 mph 8 mph 71% 0.00 in 795 W/m2
12:49 77 °F 66.2 °F 30.06 in SSW 5.2 mph 13 mph 69.4% 0.00 in 735 W/m2
12:54 76.9 °F 66.8 °F 30.06 in SW 2.1 mph 7 mph 70.9% 0.00 in 572 W/m2
12:59 77.2 °F 67.2 °F 30.06 in SW 3.4 mph 8 mph 71.3% 0.00 in 482 W/m2
13:04 76.9 °F 66.4 °F 30.05 in SSW 3.2 mph 8 mph 70% 0.00 in 252 W/m2
13:09 76.6 °F 66.8 °F 30.05 in SW 1.4 mph 7 mph 71.8% 0.00 in 236 W/m2
13:14 76.3 °F 66.8 °F 30.05 in SW 1.8 mph 6 mph 72.4% 0.00 in 260 W/m2
13:19 76.3 °F 66.8 °F 30.04 in SW 1.2 mph 7 mph 72.4% 0.00 in 259 W/m2
13:24 76.1 °F 66.5 °F 30.04 in WSW 4.6 mph 12 mph 72.2% 0.00 in 223 W/m2
13:29 75.9 °F 65.9 °F 30.04 in SW 3.3 mph 11 mph 71% 0.00 in 273 W/m2
13:34 76.1 °F 66.3 °F 30.04 in WSW 1.8 mph 6 mph 71.6% 0.00 in 310 W/m2
13:39 76.3 °F 66 °F 30.04 in WSW 3.9 mph 12 mph 70.5% 0.00 in 230 W/m2
13:44 76.3 °F 66.3 °F 30.04 in SSW 2.7 mph 8 mph 71.3% 0.00 in 260 W/m2
13:49 76.3 °F 66.5 °F 30.03 in SW 2.2 mph 7 mph 71.6% 0.00 in 234 W/m2
13:54 76.2 °F 66.5 °F 30.03 in SSW 2.5 mph 7 mph 72% 0.00 in 153 W/m2
13:59 76.1 °F 66.5 °F 30.03 in SSW 3.1 mph 7 mph 72.3% 0.00 in 128 W/m2
14:04 76 °F 67 °F 30.03 in SSW 1 mph 3 mph 73.6% 0.00 in 194 W/m2
14:09 76 °F 67.1 °F 30.03 in ESE 1.8 mph 6 mph 74% 0.00 in 194 W/m2
14:14 76 °F 66.9 °F 30.03 in SSE 1.7 mph 6 mph 73.4% 0.00 in 206 W/m2
14:19 76.1 °F 66.8 °F 30.02 in SSW 2.4 mph 7 mph 73% 0.00 in 223 W/m2
14:24 76.1 °F 66.4 °F 30.02 in SSW 2.6 mph 7 mph 72% 0.00 in 276 W/m2
14:29 76.4 °F 66.7 °F 30.02 in SSW 2.4 mph 10 mph 72.1% 0.00 in 341 W/m2
14:34 76.6 °F 67 °F 30.02 in North 1.5 mph 6 mph 72.2% 0.00 in 341 W/m2
14:39 76.8 °F 67.1 °F 30.02 in North 1.9 mph 6 mph 72.1% 0.00 in 350 W/m2
14:44 76.9 °F 67 °F 30.02 in South 2.7 mph 8 mph 71.4% 0.00 in 343 W/m2
14:49 77 °F 66.9 °F 30.01 in South 3.4 mph 9 mph 71.1% 0.00 in 194 W/m2
14:54 77 °F 67.2 °F 30.01 in SSW 3.9 mph 11 mph 71.7% 0.00 in 155 W/m2
14:59 77 °F 67.2 °F 30.01 in South 2.4 mph 11 mph 71.8% 0.00 in 165 W/m2
15:04 77.1 °F 67.4 °F 30.00 in SSW 2.4 mph 8 mph 72.1% 0.00 in 181 W/m2
15:09 77.3 °F 67 °F 30.00 in SSW 4.9 mph 14 mph 70.5% 0.00 in 241 W/m2
15:14 77.4 °F 67 °F 30.01 in South 2.7 mph 10 mph 70.4% 0.00 in 230 W/m2
15:19 77.3 °F 67.3 °F 30.01 in SW 4.6 mph 9 mph 71.3% 0.00 in 222 W/m2
15:24 76.9 °F 67.3 °F 30.01 in South 2.7 mph 9 mph 72.3% 0.00 in 238 W/m2
15:29 76.7 °F 67.7 °F 30.01 in SW 1.9 mph 7 mph 73.8% 0.00 in 158 W/m2
15:34 76.7 °F 67.9 °F 30.00 in WSW 4.1 mph 8 mph 74.1% 0.00 in 158 W/m2
15:39 76.6 °F 68 °F 30.00 in SW 3 mph 8 mph 74.9% 0.00 in 199 W/m2
15:44 76.4 °F 67.8 °F 30.00 in SSW 3 mph 8 mph 74.8% 0.00 in 187 W/m2
15:49 76.3 °F 67.8 °F 30.00 in South 2.7 mph 7 mph 75% 0.00 in 176 W/m2
15:54 76.4 °F 68 °F 30.00 in SSW 4.7 mph 12 mph 75.3% 0.00 in 167 W/m2
15:59 76.4 °F 67.9 °F 30.00 in South 4.6 mph 13 mph 75% 0.00 in 187 W/m2
16:04 76.3 °F 67.9 °F 30.00 in South 2.8 mph 8 mph 75.4% 0.00 in 174 W/m2
16:09 76.2 °F 67.8 °F 30.00 in South 2.5 mph 10 mph 75.3% 0.00 in 113 W/m2
16:14 75.9 °F 67.8 °F 30.00 in SSW 2.9 mph 7 mph 76% 0.00 in 155 W/m2
16:19 75.8 °F 67.9 °F 30.00 in SE 1.6 mph 5 mph 76.5% 0.00 in 148 W/m2
16:24 75.7 °F 68 °F 30.00 in ESE 1.5 mph 5 mph 76.9% 0.00 in 81 W/m2
16:29 75.6 °F 67.9 °F 30.00 in SE 2.3 mph 11 mph 77% 0.00 in 100 W/m2
16:34 75.6 °F 68 °F 29.99 in SSE 1.3 mph 11 mph 77.3% 0.00 in 100 W/m2
16:39 75.5 °F 67.8 °F 29.99 in SSW 4.4 mph 9 mph 77% 0.00 in 109 W/m2
16:44 75.3 °F 67.9 °F 29.99 in South 2.7 mph 7 mph 77.7% 0.00 in 125 W/m2
16:49 75.3 °F 68 °F 29.99 in ESE 1.2 mph 3 mph 78% 0.00 in 146 W/m2
16:54 75.3 °F 68 °F 29.99 in SW 1.2 mph 5 mph 78% 0.00 in 148 W/m2
16:59 75.4 °F 67.8 °F 29.99 in South 2.1 mph 7 mph 77.2% 0.00 in 109 W/m2
17:04 75.5 °F 67.8 °F 29.98 in South 1.5 mph 6 mph 77% 0.00 in 81 W/m2
17:09 75.5 °F 67.8 °F 29.98 in SSW 3.5 mph 12 mph 77% 0.00 in 70 W/m2
17:14 75.4 °F 67.8 °F 29.98 in WSW 2.1 mph 7 mph 77.4% 0.00 in 56 W/m2
17:19 75.1 °F 67.8 °F 29.98 in ESE 1.8 mph 5 mph 78% 0.00 in 42 W/m2
17:24 74.8 °F 67.9 °F 29.98 in ENE 1.1 mph 4 mph 78.9% 0.00 in 28 W/m2
17:29 74.7 °F 67.8 °F 29.98 in ESE 0.1 mph 2 mph 79.1% 0.00 in 21 W/m2
17:34 74.6 °F 68 °F 29.98 in ENE 0.1 mph 1 mph 80% 0.00 in 19 W/m2
17:39 74.4 °F 68 °F 29.98 in Calm     80.5% 0.00 in 12 W/m2
17:44 74.2 °F 68.1 °F 29.98 in NNE 0.1 mph 1 mph 81.5% 0.00 in 14 W/m2
17:49 74 °F 68.4 °F 29.98 in SW 1.1 mph 5 mph 82.8% 0.00 in 16 W/m2
17:54 73.8 °F 68.5 °F 29.98 in Calm   1 mph 83.5% 0.00 in 16 W/m2
17:59 73.6 °F 68.5 °F 29.99 in WNW 0.1 mph 1 mph 84% 0.00 in 19 W/m2
18:04 73.5 °F 68.4 °F 29.99 in Calm   1 mph 84% 0.00 in 19 W/m2
18:09 73.4 °F 68.2 °F 29.99 in Calm     84% 0.00 in 19 W/m2
18:14 73.3 °F 68.4 °F 29.99 in Calm     84.8% 0.00 in 12 W/m2
18:19 73.2 °F 68.5 °F 29.99 in Calm   1 mph 85.1% 0.00 in 11 W/m2
18:24 73.2 °F 68.7 °F 29.99 in Calm     86% 0.00 in 7 W/m2
18:29 73 °F 68.5 °F 29.99 in NW 0.5 mph 2 mph 86% 0.00 in 5 W/m2
18:34 72.8 °F 68.4 °F 29.98 in Calm   1 mph 86.1% 0.00 in 0 W/m2
18:39 72.7 °F 68.6 °F 29.98 in NW 0.1 mph 1 mph 87% 0.00 in 0 W/m2
18:44 72.4 °F 68.5 °F 29.99 in SSW 0.3 mph 1 mph 87.4% 0.00 in 0 W/m2
18:49 72.1 °F 68.6 °F 29.99 in NW 0.3 mph 2 mph 88.7% 0.00 in 0 W/m2
18:54 72 °F 68.3 °F 29.99 in NNW 0.1 mph 1 mph 88.1% 0.00 in 0 W/m2
18:59 71.8 °F 68.4 °F 29.99 in Calm     89% 0.00 in 0 W/m2
19:04 71.8 °F 68.4 °F 29.98 in NNW 0.1 mph 1 mph 89% 0.00 in 0 W/m2
19:09 71.7 °F 68.3 °F 29.98 in NW 0.2 mph 1 mph 89% 0.00 in 0 W/m2
19:14 71.6 °F 68.4 °F 29.99 in West 0.1 mph 1 mph 89.8% 0.00 in 0 W/m2
19:19 71.6 °F 68.5 °F 29.99 in Calm     90% 0.00 in 0 W/m2
19:24 71.4 °F 68.6 °F 29.99 in WNW 0.1 mph 1 mph 90.8% 0.00 in 0 W/m2
19:29 71.2 °F 68.4 °F 29.99 in SW 0.5 mph 3 mph 91% 0.00 in 0 W/m2
19:34 71.1 °F 68.3 °F 29.99 in SW 0.2 mph 1 mph 91% 0.00 in 0 W/m2
19:39 71 °F 68.2 °F 29.99 in WSW 0.2 mph 2 mph 91% 0.00 in 0 W/m2
19:44 70.9 °F 68.2 °F 29.99 in Calm     91.3% 0.00 in 0 W/m2
19:49 70.7 °F 68.3 °F 29.99 in Calm     92% 0.00 in 0 W/m2
19:54 70.4 °F 68 °F 29.99 in Calm     92% 0.00 in 0 W/m2
19:59 70 °F 67.8 °F 29.99 in Calm     92.8% 0.00 in 0 W/m2
20:04 69.7 °F 67.7 °F 29.99 in Calm     93.5% 0.00 in 0 W/m2
20:09 69.4 °F 67.6 °F 29.99 in WNW 0.3 mph 2 mph 94% 0.00 in 0 W/m2
20:14 69.2 °F 67.5 °F 29.99 in North 0.1 mph 2 mph 94.4% 0.00 in 0 W/m2
20:19 69 °F 67.5 °F 29.99 in Calm     95% 0.00 in 0 W/m2
20:24 68.8 °F 67.3 °F 29.99 in Calm     95% 0.00 in 0 W/m2
20:29 68.6 °F 67.4 °F 30.00 in Calm     96% 0.00 in 0 W/m2
20:34 68.4 °F 67.3 °F 30.00 in North 0.2 mph 2 mph 96% 0.00 in 0 W/m2
20:39 68.3 °F 67.2 °F 30.00 in Calm     96.3% 0.00 in 0 W/m2
20:44 68.1 °F 67.3 °F 30.00 in North 0.1 mph 1 mph 97% 0.00 in 0 W/m2
20:49 68 °F 67.1 °F 30.00 in Calm     97% 0.00 in 0 W/m2
20:54 67.9 °F 67 °F 30.00 in North 0.1 mph 1 mph 97% 0.00 in 0 W/m2
20:59 67.8 °F 67.1 °F 30.00 in West 0.1 mph 1 mph 97.5% 0.00 in 0 W/m2
21:04 67.6 °F 67 °F 30.00 in Calm   1 mph 98% 0.00 in 0 W/m2
21:09 67.6 °F 67 °F 30.00 in NW 0.2 mph 1 mph 98% 0.00 in 0 W/m2
21:14 67.5 °F 66.9 °F 30.00 in NW 0.2 mph 2 mph 98% 0.00 in 0 W/m2
21:19 67.4 °F 66.8 °F 29.99 in NW 0.1 mph 2 mph 98% 0.00 in 0 W/m2
21:24 67.3 °F 66.8 °F 29.99 in NW 0.3 mph 2 mph 98% 0.00 in 0 W/m2
21:29 67.3 °F 66.7 °F 29.99 in NW 0.4 mph 3 mph 98% 0.00 in 0 W/m2
21:34 67.2 °F 66.8 °F 29.99 in West 0.1 mph 1 mph 98.7% 0.00 in 0 W/m2
21:39 67.1 °F 66.8 °F 29.99 in West 0.1 mph 1 mph 99% 0.00 in 0 W/m2
21:44 67.1 °F 66.8 °F 29.99 in Calm   1 mph 99% 0.00 in 0 W/m2
21:49 67.1 °F 66.8 °F 29.99 in Calm   1 mph 99% 0.00 in 0 W/m2
21:54 67.1 °F 66.8 °F 29.99 in Calm     99% 0.00 in 0 W/m2
21:59 67.2 °F 66.9 °F 29.99 in West 0.1 mph 1 mph 99% 0.00 in 0 W/m2
22:04 67.4 °F 67.1 °F 29.99 in WNW 0.5 mph 3 mph 99% 0.00 in 0 W/m2
22:09 67.8 °F 67.2 °F 29.99 in NW 0.3 mph 3 mph 97.9% 0.00 in 0 W/m2
22:14 68.3 °F 67.3 °F 29.99 in Calm     96.9% 0.00 in 0 W/m2
22:19 68.5 °F 67.3 °F 29.99 in WNW 0.3 mph 3 mph 95.7% 0.00 in 0 W/m2
22:24 68.8 °F 67.3 °F 29.99 in Calm     95% 0.00 in 0 W/m2
22:29 68.8 °F 67.4 °F 29.99 in WNW 0.2 mph 1 mph 95% 0.00 in 0 W/m2
22:34 68.9 °F 67.4 °F 29.99 in WNW 0.1 mph 1 mph 95% 0.00 in 0 W/m2
22:39 68.9 °F 67.2 °F 29.99 in Calm   1 mph 94.2% 0.00 in 0 W/m2
22:44 68.9 °F 67.1 °F 29.99 in Calm     94% 0.00 in 0 W/m2
22:49 69.1 °F 67.4 °F 29.99 in NW 0.4 mph 3 mph 94.2% 0.00 in 0 W/m2
22:54 69.3 °F 67.5 °F 29.99 in NW 0.5 mph 3 mph 94% 0.00 in 0 W/m2
22:59 69.5 °F 67.7 °F 29.99 in Calm   1 mph 94% 0.00 in 0 W/m2
23:04 69.6 °F 67.8 °F 29.99 in NW 0.1 mph 1 mph 94% 0.00 in 0 W/m2
23:09 69.7 °F 67.9 °F 29.99 in NW 0.1 mph 1 mph 94.1% 0.00 in 0 W/m2
23:14 69.6 °F 68.1 °F 29.99 in Calm   1 mph 95% 0.00 in 0 W/m2
23:19 69.6 °F 68.1 °F 29.98 in NNW 0.1 mph 1 mph 95% 0.00 in 0 W/m2
23:24 69.6 °F 68.1 °F 29.98 in Calm     95% 0.00 in 0 W/m2
23:29 69.6 °F 68.1 °F 29.98 in Calm     95% 0.00 in 0 W/m2
23:34 69.4 °F 68.2 °F 29.98 in SW 0.9 mph 3 mph 96% 0.00 in 0 W/m2
23:39 69.3 °F 68.1 °F 29.98 in Calm   1 mph 96.1% 0.00 in 0 W/m2
23:44 69.2 °F 68.4 °F 29.99 in West 0.1 mph 1 mph 97% 0.00 in 0 W/m2
23:49 69.3 °F 68.4 °F 29.99 in SSE 0.5 mph 2 mph 97% 0.00 in 0 W/m2
23:54 69.3 °F 68.4 °F 29.99 in East 0.1 mph 1 mph 97% 0.00 in 0 W/m2
23:59 69.3 °F 68.4 °F 29.99 in ESE 0.1 mph 1 mph 97% 0.00 in 0 W/m2
Lisbon, New Hampshire, USA
Compliments of Weather Underground - 4 mb